Portada
METAR-TAF:

METAR-TAF

Aeroports :

Shizuoka, Japó

latitud: 34-47-46N, longitud: 138-11-22E, altitud: 132 m

Observació

L'informe es va fer fa 8 hores i 24 minuts, a les 12:00 UTC
Vent 7 kt del Est/Sud-Est
Temperatura 21°C
Humitat 88%
Pressió 1019 hPa
Visibilitat 10 km o més
Escasses núvols a una alçada de 2000 ft
Cel ennuvolat a una alçada de 3500 ft
Cel ennuvolat

METAR: RJNS 231200Z 11007KT 9999 FEW020 BKN035 BKN/// 21/19 Q1019

Hora: 05:24 (20:24 UTC)

Pronòstic

L'informe es va fer fa 3 hores i 19 minuts, a les 17:05 UTC
Pronòstic vàlid del 23 a les 18 UTC al 25 a les 00 UTC
Vent 12 kt del Est/Nord-Est
Visibilitat 10 km o més
Escasses núvols a una alçada de 2000 ft
Núvols disperses a una alçada de 3000 ft
Temporalment
l' 24 a les 03 UTC al 24 a les 06 UTC
Vent 15 kt del Est/Nord-Est amb ràfegues de 25 kt

TAF: RJNS 231705Z 2318/2500 06012KT 9999 FEW020 SCT030 TEMPO 2403/2406 06015G25KT

Observacions i pronòstics meteorològics de més de 4000 aeroports (METAR i TAF).

Les estacions disponibles són els punts grocs i vermells al mapa.

Posi el ratolí al punt desitjat per veure el nom de l'estació.

Feu clic per veure les observacions i els pronòstics meteorològics.

Per canviar el mapa: feu clic els botons verds amb una creu de color negre per apropar; al botó verd amb un guió per allunyar la imatge; o en les fletxes verdes per a mapes adjacents.


METAR-TAF: